sensor_id;sensor_type;location;lat;lon;timestamp;P1;P2;P0
28026;PMS5003;15344;52.342;-1.290;2023-07-13T00:02:11;7;6;
28026;PMS5003;15344;52.342;-1.290;2023-07-13T00:04:36;5;5;
28026;PMS5003;15344;52.342;-1.290;2023-07-13T00:07:01;9;7;
28026;PMS5003;15344;52.342;-1.290;2023-07-13T00:09:27;9;9;
28026;PMS5003;15344;52.342;-1.290;2023-07-13T00:11:52;7;7;
28026;PMS5003;15344;52.342;-1.290;2023-07-13T00:14:17;7;7;
28026;PMS5003;15344;52.342;-1.290;2023-07-13T00:16:42;7;7;
28026;PMS5003;15344;52.342;-1.290;2023-07-13T00:19:07;7;6;
28026;PMS5003;15344;52.342;-1.290;2023-07-13T00:21:32;11;10;
28026;PMS5003;15344;52.342;-1.290;2023-07-13T00:23:57;7;7;
28026;PMS5003;15344;52.342;-1.290;2023-07-13T00:26:22;8;8;
28026;PMS5003;15344;52.342;-1.290;2023-07-13T00:28:48;7;7;
28026;PMS5003;15344;52.342;-1.290;2023-07-13T00:31:13;7;7;
28026;PMS5003;15344;52.342;-1.290;2023-07-13T00:33:38;12;8;
28026;PMS5003;15344;52.342;-1.290;2023-07-13T00:36:03;8;7;
28026;PMS5003;15344;52.342;-1.290;2023-07-13T00:38:28;9;8;
28026;PMS5003;15344;52.342;-1.290;2023-07-13T00:40:54;11;10;
28026;PMS5003;15344;52.342;-1.290;2023-07-13T00:43:20;8;6;
28026;PMS5003;15344;52.342;-1.290;2023-07-13T00:48:10;13;7;
28026;PMS5003;15344;52.342;-1.290;2023-07-13T00:50:35;14;9;
28026;PMS5003;15344;52.342;-1.290;2023-07-13T00:53:01;12;9;
28026;PMS5003;15344;52.342;-1.290;2023-07-13T00:55:26;9;7;
28026;PMS5003;15344;52.342;-1.290;2023-07-13T00:57:51;13;9;
28026;PMS5003;15344;52.342;-1.290;2023-07-13T01:00:16;11;10;
28026;PMS5003;15344;52.342;-1.290;2023-07-13T01:02:42;5;5;
28026;PMS5003;15344;52.342;-1.290;2023-07-13T01:05:09;8;8;
28026;PMS5003;15344;52.342;-1.290;2023-07-13T01:07:32;10;8;
28026;PMS5003;15344;52.342;-1.290;2023-07-13T01:09:58;15;11;
28026;PMS5003;15344;52.342;-1.290;2023-07-13T01:12:24;14;10;
28026;PMS5003;15344;52.342;-1.290;2023-07-13T01:17:14;7;6;
28026;PMS5003;15344;52.342;-1.290;2023-07-13T01:19:40;10;9;
28026;PMS5003;15344;52.342;-1.290;2023-07-13T01:22:06;11;10;
28026;PMS5003;15344;52.342;-1.290;2023-07-13T01:24:31;9;6;
28026;PMS5003;15344;52.342;-1.290;2023-07-13T01:26:56;7;7;
28026;PMS5003;15344;52.342;-1.290;2023-07-13T01:29:21;7;6;
28026;PMS5003;15344;52.342;-1.290;2023-07-13T01:31:47;8;8;
28026;PMS5003;15344;52.342;-1.290;2023-07-13T01:34:12;10;9;
28026;PMS5003;15344;52.342;-1.290;2023-07-13T01:36:37;9;8;
28026;PMS5003;15344;52.342;-1.290;2023-07-13T01:39:02;12;9;
28026;PMS5003;15344;52.342;-1.290;2023-07-13T01:41:27;10;7;
28026;PMS5003;15344;52.342;-1.290;2023-07-13T01:43:52;10;8;
28026;PMS5003;15344;52.342;-1.290;2023-07-13T01:46:17;11;8;
28026;PMS5003;15344;52.342;-1.290;2023-07-13T01:48:42;11;9;
28026;PMS5003;15344;52.342;-1.290;2023-07-13T01:51:08;12;8;
28026;PMS5003;15344;52.342;-1.290;2023-07-13T01:53:33;11;6;
28026;PMS5003;15344;52.342;-1.290;2023-07-13T01:55:58;14;9;
28026;PMS5003;15344;52.342;-1.290;2023-07-13T01:58:23;7;7;
28026;PMS5003;15344;52.342;-1.290;2023-07-13T02:00:49;9;7;
28026;PMS5003;15344;52.342;-1.290;2023-07-13T02:03:14;11;6;
28026;PMS5003;15344;52.342;-1.290;2023-07-13T02:05:39;7;7;
28026;PMS5003;15344;52.342;-1.290;2023-07-13T02:08:05;10;8;
28026;PMS5003;15344;52.342;-1.290;2023-07-13T02:10:30;9;7;
28026;PMS5003;15344;52.342;-1.290;2023-07-13T02:12:55;7;7;
28026;PMS5003;15344;52.342;-1.290;2023-07-13T02:15:20;7;7;
28026;PMS5003;15344;52.342;-1.290;2023-07-13T02:17:46;9;8;
28026;PMS5003;15344;52.342;-1.290;2023-07-13T02:20:11;7;7;
28026;PMS5003;15344;52.342;-1.290;2023-07-13T02:22:36;7;7;
28026;PMS5003;15344;52.342;-1.290;2023-07-13T02:25:02;6;6;
28026;PMS5003;15344;52.342;-1.290;2023-07-13T02:27:27;8;6;
28026;PMS5003;15344;52.342;-1.290;2023-07-13T02:29:53;7;7;
28026;PMS5003;15344;52.342;-1.290;2023-07-13T02:32:18;10;8;
28026;PMS5003;15344;52.342;-1.290;2023-07-13T02:34:43;10;6;
28026;PMS5003;15344;52.342;-1.290;2023-07-13T02:37:08;9;9;
28026;PMS5003;15344;52.342;-1.290;2023-07-13T02:39:33;10;7;
28026;PMS5003;15344;52.342;-1.290;2023-07-13T02:41:58;12;9;
28026;PMS5003;15344;52.342;-1.290;2023-07-13T02:44:24;7;7;
28026;PMS5003;15344;52.342;-1.290;2023-07-13T02:46:49;7;7;
28026;PMS5003;15344;52.342;-1.290;2023-07-13T02:49:14;10;8;
28026;PMS5003;15344;52.342;-1.290;2023-07-13T02:51:40;7;7;
28026;PMS5003;15344;52.342;-1.290;2023-07-13T02:54:05;8;8;
28026;PMS5003;15344;52.342;-1.290;2023-07-13T02:56:31;7;6;
28026;PMS5003;15344;52.342;-1.290;2023-07-13T02:58:56;9;7;
28026;PMS5003;15344;52.342;-1.290;2023-07-13T03:01:21;11;8;
28026;PMS5003;15344;52.342;-1.290;2023-07-13T03:03:46;9;6;
28026;PMS5003;15344;52.342;-1.290;2023-07-13T03:06:11;7;7;
28026;PMS5003;15344;52.342;-1.290;2023-07-13T03:08:36;7;5;
28026;PMS5003;15344;52.342;-1.290;2023-07-13T03:11:02;6;6;
28026;PMS5003;15344;52.342;-1.290;2023-07-13T03:13:27;8;5;
28026;PMS5003;15344;52.342;-1.290;2023-07-13T03:15:52;11;8;
28026;PMS5003;15344;52.342;-1.290;2023-07-13T03:18:17;8;7;
28026;PMS5003;15344;52.342;-1.290;2023-07-13T03:20:42;8;6;
28026;PMS5003;15344;52.342;-1.290;2023-07-13T03:23:08;7;6;
28026;PMS5003;15344;52.342;-1.290;2023-07-13T03:25:33;8;8;
28026;PMS5003;15344;52.342;-1.290;2023-07-13T03:27:58;8;6;
28026;PMS5003;15344;52.342;-1.290;2023-07-13T03:30:23;11;6;
28026;PMS5003;15344;52.342;-1.290;2023-07-13T03:32:49;7;6;
28026;PMS5003;15344;52.342;-1.290;2023-07-13T03:35:14;10;8;
28026;PMS5003;15344;52.342;-1.290;2023-07-13T03:37:39;14;8;
28026;PMS5003;15344;52.342;-1.290;2023-07-13T03:40:04;8;6;
28026;PMS5003;15344;52.342;-1.290;2023-07-13T03:42:29;9;9;
28026;PMS5003;15344;52.342;-1.290;2023-07-13T03:44:55;8;8;
28026;PMS5003;15344;52.342;-1.290;2023-07-13T03:47:20;12;7;
28026;PMS5003;15344;52.342;-1.290;2023-07-13T03:49:45;10;7;
28026;PMS5003;15344;52.342;-1.290;2023-07-13T03:52:11;7;7;
28026;PMS5003;15344;52.342;-1.290;2023-07-13T03:54:36;9;9;
28026;PMS5003;15344;52.342;-1.290;2023-07-13T03:57:01;12;9;
28026;PMS5003;15344;52.342;-1.290;2023-07-13T03:59:26;8;6;
28026;PMS5003;15344;52.342;-1.290;2023-07-13T04:01:51;9;7;
28026;PMS5003;15344;52.342;-1.290;2023-07-13T04:04:16;13;8;
28026;PMS5003;15344;52.342;-1.290;2023-07-13T04:06:42;10;9;
28026;PMS5003;15344;52.342;-1.290;2023-07-13T04:09:07;11;10;
28026;PMS5003;15344;52.342;-1.290;2023-07-13T04:11:32;12;9;
28026;PMS5003;15344;52.342;-1.290;2023-07-13T04:13:58;6;6;
28026;PMS5003;15344;52.342;-1.290;2023-07-13T04:16:23;12;10;
28026;PMS5003;15344;52.342;-1.290;2023-07-13T04:18:48;11;8;
28026;PMS5003;15344;52.342;-1.290;2023-07-13T04:21:13;8;6;
28026;PMS5003;15344;52.342;-1.290;2023-07-13T04:23:39;7;6;
28026;PMS5003;15344;52.342;-1.290;2023-07-13T04:26:04;8;8;
28026;PMS5003;15344;52.342;-1.290;2023-07-13T04:28:29;10;7;
28026;PMS5003;15344;52.342;-1.290;2023-07-13T04:30:54;9;9;
28026;PMS5003;15344;52.342;-1.290;2023-07-13T04:33:20;6;6;
28026;PMS5003;15344;52.342;-1.290;2023-07-13T04:35:45;8;7;
28026;PMS5003;15344;52.342;-1.290;2023-07-13T04:38:11;9;6;
28026;PMS5003;15344;52.342;-1.290;2023-07-13T04:40:36;11;7;
28026;PMS5003;15344;52.342;-1.290;2023-07-13T04:43:01;9;8;
28026;PMS5003;15344;52.342;-1.290;2023-07-13T04:45:27;8;6;
28026;PMS5003;15344;52.342;-1.290;2023-07-13T04:47:52;9;8;
28026;PMS5003;15344;52.342;-1.290;2023-07-13T04:50:17;6;6;
28026;PMS5003;15344;52.342;-1.290;2023-07-13T04:52:42;13;4;
28026;PMS5003;15344;52.342;-1.290;2023-07-13T04:55:08;8;8;
28026;PMS5003;15344;52.342;-1.290;2023-07-13T04:57:33;10;7;
28026;PMS5003;15344;52.342;-1.290;2023-07-13T04:59:58;11;6;
28026;PMS5003;15344;52.342;-1.290;2023-07-13T05:02:24;7;7;
28026;PMS5003;15344;52.342;-1.290;2023-07-13T05:04:49;8;7;
28026;PMS5003;15344;52.342;-1.290;2023-07-13T05:07:14;9;7;
28026;PMS5003;15344;52.342;-1.290;2023-07-13T05:09:40;10;6;
28026;PMS5003;15344;52.342;-1.290;2023-07-13T05:12:06;6;6;
28026;PMS5003;15344;52.342;-1.290;2023-07-13T05:14:30;5;5;
28026;PMS5003;15344;52.342;-1.290;2023-07-13T05:16:56;8;6;
28026;PMS5003;15344;52.342;-1.290;2023-07-13T05:19:22;7;7;
28026;PMS5003;15344;52.342;-1.290;2023-07-13T05:21:47;7;7;
28026;PMS5003;15344;52.342;-1.290;2023-07-13T05:24:12;6;5;
28026;PMS5003;15344;52.342;-1.290;2023-07-13T05:26:37;12;5;
28026;PMS5003;15344;52.342;-1.290;2023-07-13T05:29:03;8;6;
28026;PMS5003;15344;52.342;-1.290;2023-07-13T05:31:28;8;5;
28026;PMS5003;15344;52.342;-1.290;2023-07-13T05:33:53;6;6;
28026;PMS5003;15344;52.342;-1.290;2023-07-13T05:36:18;9;5;
28026;PMS5003;15344;52.342;-1.290;2023-07-13T05:38:43;8;6;
28026;PMS5003;15344;52.342;-1.290;2023-07-13T05:41:09;5;5;
28026;PMS5003;15344;52.342;-1.290;2023-07-13T05:43:34;4;4;
28026;PMS5003;15344;52.342;-1.290;2023-07-13T05:45:59;6;5;
28026;PMS5003;15344;52.342;-1.290;2023-07-13T05:48:25;7;4;
28026;PMS5003;15344;52.342;-1.290;2023-07-13T05:50:50;9;6;
28026;PMS5003;15344;52.342;-1.290;2023-07-13T05:53:15;7;7;
28026;PMS5003;15344;52.342;-1.290;2023-07-13T05:55:41;7;5;
28026;PMS5003;15344;52.342;-1.290;2023-07-13T05:58:06;8;7;
28026;PMS5003;15344;52.342;-1.290;2023-07-13T06:00:31;11;8;
28026;PMS5003;15344;52.342;-1.290;2023-07-13T06:02:56;4;4;
28026;PMS5003;15344;52.342;-1.290;2023-07-13T06:05:22;5;3;
28026;PMS5003;15344;52.342;-1.290;2023-07-13T06:07:46;7;6;
28026;PMS5003;15344;52.342;-1.290;2023-07-13T06:10:12;6;4;
28026;PMS5003;15344;52.342;-1.290;2023-07-13T06:12:37;6;5;
28026;PMS5003;15344;52.342;-1.290;2023-07-13T06:15:02;6;6;
28026;PMS5003;15344;52.342;-1.290;2023-07-13T06:17:27;5;4;
28026;PMS5003;15344;52.342;-1.290;2023-07-13T06:19:52;5;4;
28026;PMS5003;15344;52.342;-1.290;2023-07-13T06:22:17;8;5;
28026;PMS5003;15344;52.342;-1.290;2023-07-13T06:24:43;6;6;
28026;PMS5003;15344;52.342;-1.290;2023-07-13T06:27:08;5;5;
28026;PMS5003;15344;52.342;-1.290;2023-07-13T06:29:33;6;4;
28026;PMS5003;15344;52.342;-1.290;2023-07-13T06:31:58;6;6;
28026;PMS5003;15344;52.342;-1.290;2023-07-13T06:34:23;4;3;
28026;PMS5003;15344;52.342;-1.290;2023-07-13T06:36:48;6;6;
28026;PMS5003;15344;52.342;-1.290;2023-07-13T06:39:14;5;4;
28026;PMS5003;15344;52.342;-1.290;2023-07-13T06:41:39;5;5;
28026;PMS5003;15344;52.342;-1.290;2023-07-13T06:44:04;5;5;
28026;PMS5003;15344;52.342;-1.290;2023-07-13T06:46:29;6;6;
28026;PMS5003;15344;52.342;-1.290;2023-07-13T06:48:55;8;8;
28026;PMS5003;15344;52.342;-1.290;2023-07-13T06:51:19;8;7;
28026;PMS5003;15344;52.342;-1.290;2023-07-13T06:53:44;5;5;
28026;PMS5003;15344;52.342;-1.290;2023-07-13T06:56:10;5;3;
28026;PMS5003;15344;52.342;-1.290;2023-07-13T06:58:35;6;4;
28026;PMS5003;15344;52.342;-1.290;2023-07-13T07:01:00;4;4;
28026;PMS5003;15344;52.342;-1.290;2023-07-13T07:03:25;4;4;
28026;PMS5003;15344;52.342;-1.290;2023-07-13T07:05:50;3;3;
28026;PMS5003;15344;52.342;-1.290;2023-07-13T07:08:15;4;3;
28026;PMS5003;15344;52.342;-1.290;2023-07-13T07:10:40;5;5;
28026;PMS5003;15344;52.342;-1.290;2023-07-13T07:13:06;4;4;
28026;PMS5003;15344;52.342;-1.290;2023-07-13T07:15:31;3;3;
28026;PMS5003;15344;52.342;-1.290;2023-07-13T07:17:57;4;2;
28026;PMS5003;15344;52.342;-1.290;2023-07-13T07:20:23;5;4;
28026;PMS5003;15344;52.342;-1.290;2023-07-13T07:22:49;3;3;
28026;PMS5003;15344;52.342;-1.290;2023-07-13T07:25:15;5;5;
28026;PMS5003;15344;52.342;-1.290;2023-07-13T07:27:41;4;4;
28026;PMS5003;15344;52.342;-1.290;2023-07-13T07:30:07;3;3;
28026;PMS5003;15344;52.342;-1.290;2023-07-13T07:32:32;4;3;
28026;PMS5003;15344;52.342;-1.290;2023-07-13T07:34:58;8;3;
28026;PMS5003;15344;52.342;-1.290;2023-07-13T07:37:24;3;3;
28026;PMS5003;15344;52.342;-1.290;2023-07-13T07:39:49;4;4;
28026;PMS5003;15344;52.342;-1.290;2023-07-13T07:42:15;2;2;
28026;PMS5003;15344;52.342;-1.290;2023-07-13T07:44:41;2;2;
28026;PMS5003;15344;52.342;-1.290;2023-07-13T07:47:07;2;2;
28026;PMS5003;15344;52.342;-1.290;2023-07-13T07:49:33;5;4;
28026;PMS5003;15344;52.342;-1.290;2023-07-13T07:51:58;3;3;
28026;PMS5003;15344;52.342;-1.290;2023-07-13T07:54:24;5;4;
28026;PMS5003;15344;52.342;-1.290;2023-07-13T07:56:50;5;3;
28026;PMS5003;15344;52.342;-1.290;2023-07-13T07:59:15;3;3;
28026;PMS5003;15344;52.342;-1.290;2023-07-13T08:01:41;4;3;
28026;PMS5003;15344;52.342;-1.290;2023-07-13T08:04:07;6;3;
28026;PMS5003;15344;52.342;-1.290;2023-07-13T08:06:33;3;2;
28026;PMS5003;15344;52.342;-1.290;2023-07-13T08:08:58;6;3;
28026;PMS5003;15344;52.342;-1.290;2023-07-13T08:11:24;2;1;
28026;PMS5003;15344;52.342;-1.290;2023-07-13T08:13:50;3;3;
28026;PMS5003;15344;52.342;-1.290;2023-07-13T08:16:15;1;1;
28026;PMS5003;15344;52.342;-1.290;2023-07-13T08:18:41;3;3;
28026;PMS5003;15344;52.342;-1.290;2023-07-13T08:21:07;2;2;
28026;PMS5003;15344;52.342;-1.290;2023-07-13T08:23:32;4;3;
28026;PMS5003;15344;52.342;-1.290;2023-07-13T08:25:58;4;2;
28026;PMS5003;15344;52.342;-1.290;2023-07-13T08:28:23;5;3;
28026;PMS5003;15344;52.342;-1.290;2023-07-13T08:30:49;5;4;
28026;PMS5003;15344;52.342;-1.290;2023-07-13T08:33:15;3;3;
28026;PMS5003;15344;52.342;-1.290;2023-07-13T08:35:40;6;3;
28026;PMS5003;15344;52.342;-1.290;2023-07-13T08:38:06;3;1;
28026;PMS5003;15344;52.342;-1.290;2023-07-13T08:40:32;3;3;
28026;PMS5003;15344;52.342;-1.290;2023-07-13T08:42:58;4;3;
28026;PMS5003;15344;52.342;-1.290;2023-07-13T08:45:23;3;3;
28026;PMS5003;15344;52.342;-1.290;2023-07-13T08:47:49;3;3;
28026;PMS5003;15344;52.342;-1.290;2023-07-13T08:50:15;2;2;
28026;PMS5003;15344;52.342;-1.290;2023-07-13T08:52:40;4;2;
28026;PMS5003;15344;52.342;-1.290;2023-07-13T08:55:08;2;2;
28026;PMS5003;15344;52.342;-1.290;2023-07-13T08:57:31;3;3;
28026;PMS5003;15344;52.342;-1.290;2023-07-13T08:59:56;3;2;
28026;PMS5003;15344;52.342;-1.290;2023-07-13T09:02:25;3;3;
28026;PMS5003;15344;52.342;-1.290;2023-07-13T09:04:49;2;2;
28026;PMS5003;15344;52.342;-1.290;2023-07-13T09:07:14;4;3;
28026;PMS5003;15344;52.342;-1.290;2023-07-13T09:09:42;2;1;
28026;PMS5003;15344;52.342;-1.290;2023-07-13T09:12:07;2;2;
28026;PMS5003;15344;52.342;-1.290;2023-07-13T09:14:34;3;3;
28026;PMS5003;15344;52.342;-1.290;2023-07-13T09:16:56;3;2;
28026;PMS5003;15344;52.342;-1.290;2023-07-13T09:19:23;4;3;
28026;PMS5003;15344;52.342;-1.290;2023-07-13T09:21:47;5;3;
28026;PMS5003;15344;52.342;-1.290;2023-07-13T09:26:38;5;3;
28026;PMS5003;15344;52.342;-1.290;2023-07-13T09:29:09;2;2;
28026;PMS5003;15344;52.342;-1.290;2023-07-13T09:31:32;2;2;
28026;PMS5003;15344;52.342;-1.290;2023-07-13T09:33:55;2;2;
28026;PMS5003;15344;52.342;-1.290;2023-07-13T09:36:22;3;3;
28026;PMS5003;15344;52.342;-1.290;2023-07-13T09:38:47;3;2;
28026;PMS5003;15344;52.342;-1.290;2023-07-13T09:41:15;2;2;
28026;PMS5003;15344;52.342;-1.290;2023-07-13T09:43:38;1;1;
28026;PMS5003;15344;52.342;-1.290;2023-07-13T09:46:04;1;1;
28026;PMS5003;15344;52.342;-1.290;2023-07-13T09:48:33;4;3;
28026;PMS5003;15344;52.342;-1.290;2023-07-13T09:50:55;2;2;
28026;PMS5003;15344;52.342;-1.290;2023-07-13T09:53:21;4;2;
28026;PMS5003;15344;52.342;-1.290;2023-07-13T09:55:47;3;2;
28026;PMS5003;15344;52.342;-1.290;2023-07-13T09:58:13;5;2;
28026;PMS5003;15344;52.342;-1.290;2023-07-13T10:00:38;1;1;
28026;PMS5003;15344;52.342;-1.290;2023-07-13T10:03:04;3;3;
28026;PMS5003;15344;52.342;-1.290;2023-07-13T10:07:55;3;1;
28026;PMS5003;15344;52.342;-1.290;2023-07-13T10:10:21;1;1;
28026;PMS5003;15344;52.342;-1.290;2023-07-13T10:12:47;3;3;
28026;PMS5003;15344;52.342;-1.290;2023-07-13T10:15:14;1;1;
28026;PMS5003;15344;52.342;-1.290;2023-07-13T10:17:38;5;5;
28026;PMS5003;15344;52.342;-1.290;2023-07-13T10:20:05;3;3;
28026;PMS5003;15344;52.342;-1.290;2023-07-13T10:22:33;2;2;
28026;PMS5003;15344;52.342;-1.290;2023-07-13T10:24:55;2;2;
28026;PMS5003;15344;52.342;-1.290;2023-07-13T10:27:23;4;4;
28026;PMS5003;15344;52.342;-1.290;2023-07-13T10:29:48;3;3;
28026;PMS5003;15344;52.342;-1.290;2023-07-13T10:32:13;6;3;
28026;PMS5003;15344;52.342;-1.290;2023-07-13T10:34:38;2;2;
28026;PMS5003;15344;52.342;-1.290;2023-07-13T10:37:05;3;3;
28026;PMS5003;15344;52.342;-1.290;2023-07-13T10:39:30;4;3;
28026;PMS5003;15344;52.342;-1.290;2023-07-13T10:41:57;5;3;
28026;PMS5003;15344;52.342;-1.290;2023-07-13T10:44:22;3;3;
28026;PMS5003;15344;52.342;-1.290;2023-07-13T10:46:47;3;3;
28026;PMS5003;15344;52.342;-1.290;2023-07-13T10:49:13;6;3;
28026;PMS5003;15344;52.342;-1.290;2023-07-13T10:51:39;2;2;
28026;PMS5003;15344;52.342;-1.290;2023-07-13T10:56:30;6;4;
28026;PMS5003;15344;52.342;-1.290;2023-07-13T11:01:22;2;2;
28026;PMS5003;15344;52.342;-1.290;2023-07-13T11:03:49;3;3;
28026;PMS5003;15344;52.342;-1.290;2023-07-13T11:06:15;4;3;
28026;PMS5003;15344;52.342;-1.290;2023-07-13T11:13:35;2;2;
28026;PMS5003;15344;52.342;-1.290;2023-07-13T11:15:56;2;2;
28026;PMS5003;15344;52.342;-1.290;2023-07-13T11:18:23;4;4;
28026;PMS5003;15344;52.342;-1.290;2023-07-13T11:20:48;7;2;
28026;PMS5003;15344;52.342;-1.290;2023-07-13T11:23:19;3;2;
28026;PMS5003;15344;52.342;-1.290;2023-07-13T11:25:40;5;3;
28026;PMS5003;15344;52.342;-1.290;2023-07-13T11:28:10;4;3;
28026;PMS5003;15344;52.342;-1.290;2023-07-13T11:30:35;2;2;
28026;PMS5003;15344;52.342;-1.290;2023-07-13T11:35:23;6;5;
28026;PMS5003;15344;52.342;-1.290;2023-07-13T11:37:48;5;5;
28026;PMS5003;15344;52.342;-1.290;2023-07-13T11:40:14;6;4;
28026;PMS5003;15344;52.342;-1.290;2023-07-13T11:42:40;4;3;
28026;PMS5003;15344;52.342;-1.290;2023-07-13T11:47:32;6;4;
28026;PMS5003;15344;52.342;-1.290;2023-07-13T11:49:58;4;4;
28026;PMS5003;15344;52.342;-1.290;2023-07-13T11:52:26;5;4;
28026;PMS5003;15344;52.342;-1.290;2023-07-13T11:54:50;8;6;
28026;PMS5003;15344;52.342;-1.290;2023-07-13T11:57:17;8;8;
28026;PMS5003;15344;52.342;-1.290;2023-07-13T11:59:41;9;9;
28026;PMS5003;15344;52.342;-1.290;2023-07-13T12:02:09;5;4;
28026;PMS5003;15344;52.342;-1.290;2023-07-13T12:04:32;6;4;
28026;PMS5003;15344;52.342;-1.290;2023-07-13T12:07:03;6;3;
28026;PMS5003;15344;52.342;-1.290;2023-07-13T12:09:26;3;3;
28026;PMS5003;15344;52.342;-1.290;2023-07-13T12:11:50;4;4;
28026;PMS5003;15344;52.342;-1.290;2023-07-13T12:14:16;4;4;
28026;PMS5003;15344;52.342;-1.290;2023-07-13T12:16:42;4;4;
28026;PMS5003;15344;52.342;-1.290;2023-07-13T12:19:10;4;4;
28026;PMS5003;15344;52.342;-1.290;2023-07-13T12:21:37;3;3;
28026;PMS5003;15344;52.342;-1.290;2023-07-13T12:23:59;4;4;
28026;PMS5003;15344;52.342;-1.290;2023-07-13T12:26:25;4;4;
28026;PMS5003;15344;52.342;-1.290;2023-07-13T12:28:51;3;2;
28026;PMS5003;15344;52.342;-1.290;2023-07-13T12:31:23;3;3;
28026;PMS5003;15344;52.342;-1.290;2023-07-13T12:33:42;2;2;
28026;PMS5003;15344;52.342;-1.290;2023-07-13T12:36:08;4;3;
28026;PMS5003;15344;52.342;-1.290;2023-07-13T12:38:35;4;4;
28026;PMS5003;15344;52.342;-1.290;2023-07-13T12:41:00;4;2;
28026;PMS5003;15344;52.342;-1.290;2023-07-13T12:43:26;5;4;
28026;PMS5003;15344;52.342;-1.290;2023-07-13T12:45:55;8;5;
28026;PMS5003;15344;52.342;-1.290;2023-07-13T12:48:17;5;4;
28026;PMS5003;15344;52.342;-1.290;2023-07-13T12:50:43;4;4;
28026;PMS5003;15344;52.342;-1.290;2023-07-13T12:53:12;5;5;
28026;PMS5003;15344;52.342;-1.290;2023-07-13T12:57:59;6;4;
28026;PMS5003;15344;52.342;-1.290;2023-07-13T13:00:27;4;4;
28026;PMS5003;15344;52.342;-1.290;2023-07-13T13:02:51;2;2;
28026;PMS5003;15344;52.342;-1.290;2023-07-13T13:05:17;6;3;
28026;PMS5003;15344;52.342;-1.290;2023-07-13T13:07:42;4;4;
28026;PMS5003;15344;52.342;-1.290;2023-07-13T13:10:11;3;3;
28026;PMS5003;15344;52.342;-1.290;2023-07-13T13:12:34;4;4;
28026;PMS5003;15344;52.342;-1.290;2023-07-13T13:15:00;3;3;
28026;PMS5003;15344;52.342;-1.290;2023-07-13T13:17:27;4;4;
28026;PMS5003;15344;52.342;-1.290;2023-07-13T13:19:52;4;4;
28026;PMS5003;15344;52.342;-1.290;2023-07-13T13:22:18;5;5;
28026;PMS5003;15344;52.342;-1.290;2023-07-13T13:24:43;7;5;
28026;PMS5003;15344;52.342;-1.290;2023-07-13T13:27:13;4;4;
28026;PMS5003;15344;52.342;-1.290;2023-07-13T13:29:36;3;3;
28026;PMS5003;15344;52.342;-1.290;2023-07-13T13:32:01;4;4;
28026;PMS5003;15344;52.342;-1.290;2023-07-13T13:34:27;4;4;
28026;PMS5003;15344;52.342;-1.290;2023-07-13T13:36:53;3;3;
28026;PMS5003;15344;52.342;-1.290;2023-07-13T13:39:19;4;4;
28026;PMS5003;15344;52.342;-1.290;2023-07-13T13:41:44;5;5;
28026;PMS5003;15344;52.342;-1.290;2023-07-13T13:44:10;4;2;
28026;PMS5003;15344;52.342;-1.290;2023-07-13T13:46:35;10;6;
28026;PMS5003;15344;52.342;-1.290;2023-07-13T13:49:01;3;3;
28026;PMS5003;15344;52.342;-1.290;2023-07-13T13:51:26;5;3;
28026;PMS5003;15344;52.342;-1.290;2023-07-13T13:53:52;5;4;
28026;PMS5003;15344;52.342;-1.290;2023-07-13T13:56:19;3;3;
28026;PMS5003;15344;52.342;-1.290;2023-07-13T13:58:44;4;4;
28026;PMS5003;15344;52.342;-1.290;2023-07-13T14:01:12;4;4;
28026;PMS5003;15344;52.342;-1.290;2023-07-13T14:03:36;4;2;
28026;PMS5003;15344;52.342;-1.290;2023-07-13T14:06:02;4;4;
28026;PMS5003;15344;52.342;-1.290;2023-07-13T14:08:27;3;3;
28026;PMS5003;15344;52.342;-1.290;2023-07-13T14:10:54;4;4;
28026;PMS5003;15344;52.342;-1.290;2023-07-13T14:13:20;3;3;
28026;PMS5003;15344;52.342;-1.290;2023-07-13T14:15:45;3;3;
28026;PMS5003;15344;52.342;-1.290;2023-07-13T14:18:11;5;5;
28026;PMS5003;15344;52.342;-1.290;2023-07-13T14:20:37;3;3;
28026;PMS5003;15344;52.342;-1.290;2023-07-13T14:23:02;5;5;
28026;PMS5003;15344;52.342;-1.290;2023-07-13T14:25:28;6;6;
28026;PMS5003;15344;52.342;-1.290;2023-07-13T14:27:55;5;5;
28026;PMS5003;15344;52.342;-1.290;2023-07-13T14:30:20;4;4;
28026;PMS5003;15344;52.342;-1.290;2023-07-13T14:32:46;5;3;
28026;PMS5003;15344;52.342;-1.290;2023-07-13T14:35:11;7;5;
28026;PMS5003;15344;52.342;-1.290;2023-07-13T14:37:37;5;5;
28026;PMS5003;15344;52.342;-1.290;2023-07-13T14:40:08;5;5;
28026;PMS5003;15344;52.342;-1.290;2023-07-13T14:42:29;5;5;
28026;PMS5003;15344;52.342;-1.290;2023-07-13T14:44:54;7;4;
28026;PMS5003;15344;52.342;-1.290;2023-07-13T14:47:20;3;3;
28026;PMS5003;15344;52.342;-1.290;2023-07-13T14:49:46;5;5;
28026;PMS5003;15344;52.342;-1.290;2023-07-13T14:52:12;7;6;
28026;PMS5003;15344;52.342;-1.290;2023-07-13T14:54:38;4;4;
28026;PMS5003;15344;52.342;-1.290;2023-07-13T14:57:04;3;3;
28026;PMS5003;15344;52.342;-1.290;2023-07-13T14:59:29;5;5;
28026;PMS5003;15344;52.342;-1.290;2023-07-13T15:01:55;4;4;
28026;PMS5003;15344;52.342;-1.290;2023-07-13T15:04:21;2;2;
28026;PMS5003;15344;52.342;-1.290;2023-07-13T15:09:13;4;2;
28026;PMS5003;15344;52.342;-1.290;2023-07-13T15:11:39;4;4;
28026;PMS5003;15344;52.342;-1.290;2023-07-13T15:14:05;3;3;
28026;PMS5003;15344;52.342;-1.290;2023-07-13T15:16:30;3;3;
28026;PMS5003;15344;52.342;-1.290;2023-07-13T15:18:56;3;3;
28026;PMS5003;15344;52.342;-1.290;2023-07-13T15:21:23;2;2;
28026;PMS5003;15344;52.342;-1.290;2023-07-13T15:23:48;4;3;
28026;PMS5003;15344;52.342;-1.290;2023-07-13T15:26:14;3;2;
28026;PMS5003;15344;52.342;-1.290;2023-07-13T15:28:40;3;2;
28026;PMS5003;15344;52.342;-1.290;2023-07-13T15:31:08;4;4;
28026;PMS5003;15344;52.342;-1.290;2023-07-13T15:33:31;3;3;
28026;PMS5003;15344;52.342;-1.290;2023-07-13T15:35:57;3;3;
28026;PMS5003;15344;52.342;-1.290;2023-07-13T15:38:23;4;3;
28026;PMS5003;15344;52.342;-1.290;2023-07-13T15:40:49;4;4;
28026;PMS5003;15344;52.342;-1.290;2023-07-13T15:43:15;4;3;
28026;PMS5003;15344;52.342;-1.290;2023-07-13T15:45:41;3;3;
28026;PMS5003;15344;52.342;-1.290;2023-07-13T15:48:16;4;4;
28026;PMS5003;15344;52.342;-1.290;2023-07-13T15:50:32;4;3;
28026;PMS5003;15344;52.342;-1.290;2023-07-13T15:52:58;1;1;
28026;PMS5003;15344;52.342;-1.290;2023-07-13T15:55:23;5;4;
28026;PMS5003;15344;52.342;-1.290;2023-07-13T15:57:50;2;2;
28026;PMS5003;15344;52.342;-1.290;2023-07-13T16:00:19;8;7;
28026;PMS5003;15344;52.342;-1.290;2023-07-13T16:02:41;4;4;
28026;PMS5003;15344;52.342;-1.290;2023-07-13T16:05:07;5;4;
28026;PMS5003;15344;52.342;-1.290;2023-07-13T16:07:33;5;5;
28026;PMS5003;15344;52.342;-1.290;2023-07-13T16:09:59;5;4;
28026;PMS5003;15344;52.342;-1.290;2023-07-13T16:12:25;3;3;
28026;PMS5003;15344;52.342;-1.290;2023-07-13T16:14:50;5;2;
28026;PMS5003;15344;52.342;-1.290;2023-07-13T16:17:16;2;2;
28026;PMS5003;15344;52.342;-1.290;2023-07-13T16:19:42;5;2;
28026;PMS5003;15344;52.342;-1.290;2023-07-13T16:22:09;2;2;
28026;PMS5003;15344;52.342;-1.290;2023-07-13T16:24:34;2;2;
28026;PMS5003;15344;52.342;-1.290;2023-07-13T16:26:59;3;3;
28026;PMS5003;15344;52.342;-1.290;2023-07-13T16:29:26;4;4;
28026;PMS5003;15344;52.342;-1.290;2023-07-13T16:31:56;2;2;
28026;PMS5003;15344;52.342;-1.290;2023-07-13T16:34:17;3;3;
28026;PMS5003;15344;52.342;-1.290;2023-07-13T16:36:43;2;2;
28026;PMS5003;15344;52.342;-1.290;2023-07-13T16:39:11;3;3;
28026;PMS5003;15344;52.342;-1.290;2023-07-13T16:41:35;3;2;
28026;PMS5003;15344;52.342;-1.290;2023-07-13T16:44:00;3;3;
28026;PMS5003;15344;52.342;-1.290;2023-07-13T16:46:26;2;2;
28026;PMS5003;15344;52.342;-1.290;2023-07-13T16:48:52;2;2;